Time;durP1;ratioP1;P1;durP2;ratioP2;P2;SDS_P1;SDS_P2;PMS_P1;PMS_P2;Temp;Humidity;BMP_temperature;BMP_pressure;BME280_temperature;BME280_humidity;BME280_pressure;Samples;Min_cycle;Max_cycle;Signal;HPM_P1;HPM_P2
2020/12/22 00:00:40;;;;;;;;;;;;;;;7.25;100.00;93231.53;1066151;55;20149;-86
2020/12/22 00:01:41;;;;;;;;;;;;;;;7.26;100.00;93227.72;1065930;55;20204;-87
2020/12/22 00:02:44;;;;;;;;;;;;;;;7.26;100.00;93235.69;1066077;55;20154;-85
2020/12/22 00:03:45;;;;;;;;;;;;;;;7.25;100.00;93234.94;1064013;55;20177;-86
2020/12/22 00:04:45;;;;;;;;;;;;;;;7.31;100.00;93228.03;1061793;56;20155;-87
2020/12/22 00:05:48;;;;;;;;;;;;;;;7.31;100.00;93227.28;1064083;55;20560;-87
2020/12/22 00:06:49;;;;;;;;;;;;;;;7.35;100.00;93243.22;1066216;55;20266;-87
2020/12/22 00:07:49;;;;;;;;;;;;;;;7.27;100.00;93243.25;1063937;55;20704;-86
2020/12/22 00:08:52;;;;;;;;;;;;;;;7.27;100.00;93237.19;1066124;55;20176;-88
2020/12/22 00:09:53;;;;;;;;;;;;;;;7.26;100.00;93230.38;1064236;55;20174;-87
2020/12/22 00:10:53;;;;;;;;;;;;;;;7.30;100.00;93241.72;1066329;55;20170;-86
2020/12/22 00:11:54;;;;;;;;;;;;;;;7.34;100.00;93245.12;1063911;55;20177;-85
2020/12/22 00:12:55;;;;;;;;;;;;;;;7.33;100.00;93246.25;1063806;55;20621;-88
2020/12/22 00:13:57;;;;;;;;;;;;;;;7.35;100.00;93251.19;1068531;55;20184;-86
2020/12/22 00:14:58;;;;;;;;;;;;;;;7.30;100.00;93253.13;1070464;55;20152;-86
2020/12/22 00:15:58;;;;;;;;;;;;;;;7.25;100.00;93245.56;1068230;55;20598;-86
2020/12/22 00:16:59;;;;;;;;;;;;;;;7.27;100.00;93253.13;1065973;55;20154;-86
2020/12/22 00:17:59;;;;;;;;;;;;;;;7.38;100.00;93237.12;1068301;55;20161;-86
2020/12/22 00:19:01;;;;;;;;;;;;;;;7.37;100.00;93233.69;1066041;55;20267;-86
2020/12/22 00:20:02;;;;;;;;;;;;;;;7.38;100.00;93242.44;1066292;55;20188;-87
2020/12/22 00:21:04;;;;;;;;;;;;;;;7.34;100.00;93247.03;1070411;55;20157;-88
2020/12/22 00:22:05;;;;;;;;;;;;;;;7.33;100.00;93251.56;1068166;55;20173;-85
2020/12/22 00:23:05;;;;;;;;;;;;;;;7.39;100.00;93243.94;1066195;55;20262;-88
2020/12/22 00:24:06;;;;;;;;;;;;;;;7.36;100.00;93248.13;1066153;55;20201;-86
2020/12/22 00:25:09;;;;;;;;;;;;;;;7.36;100.00;93242.81;1064093;55;20155;-86
2020/12/22 00:26:14;;;;;;;;;;;;;;;7.35;100.00;93237.91;1068332;55;20152;-86
2020/12/22 00:27:15;;;;;;;;;;;;;;;7.34;100.00;93239.81;1064298;55;20656;-86
2020/12/22 00:28:16;;;;;;;;;;;;;;;7.36;100.00;93245.47;1064102;55;20645;-87
2020/12/22 00:29:17;;;;;;;;;;;;;;;7.34;100.00;93239.06;1066042;55;20153;-86
2020/12/22 00:30:18;;;;;;;;;;;;;;;7.45;100.00;93239.72;1066047;55;20241;-86
2020/12/22 00:31:19;;;;;;;;;;;;;;;7.38;100.00;93232.56;1068195;55;20238;-86
2020/12/22 00:32:20;;;;;;;;;;;;;;;7.38;100.00;93237.88;1068362;55;20153;-88
2020/12/22 00:33:21;;;;;;;;;;;;;;;7.40;100.00;93234.81;1068114;55;20239;-86
2020/12/22 00:34:22;;;;;;;;;;;;;;;7.47;100.00;93237.44;1068242;55;20272;-87
2020/12/22 00:35:22;;;;;;;;;;;;;;;7.46;100.00;93226.03;1066058;55;20153;-87
2020/12/22 00:36:25;;;;;;;;;;;;;;;7.41;100.00;93223.78;1066116;55;20654;-86
2020/12/22 00:37:26;;;;;;;;;;;;;;;7.40;100.00;93221.53;1063875;55;20185;-87
2020/12/22 00:38:26;;;;;;;;;;;;;;;7.54;100.00;93229.38;1066118;55;20164;-86
2020/12/22 00:39:27;;;;;;;;;;;;;;;7.49;100.00;93227.91;1068237;55;20162;-88
2020/12/22 00:40:28;;;;;;;;;;;;;;;7.46;100.00;93218.06;1065957;55;20238;-86
2020/12/22 00:41:28;;;;;;;;;;;;;;;7.58;100.00;93224.78;1065900;55;20173;-86
2020/12/22 00:42:30;;;;;;;;;;;;;;;7.50;100.00;93226.75;1070300;55;20605;-86
2020/12/22 00:43:30;;;;;;;;;;;;;;;7.50;100.00;93223.31;1070483;55;20263;-86
2020/12/22 00:44:31;;;;;;;;;;;;;;;7.55;100.00;93260.12;1068159;55;21159;-85
2020/12/22 00:45:32;;;;;;;;;;;;;;;7.63;100.00;93231.59;1067544;55;20582;-87
2020/12/22 00:46:32;;;;;;;;;;;;;;;7.53;100.00;93225.22;1065958;55;20170;-86
2020/12/22 00:47:33;;;;;;;;;;;;;;;7.48;100.00;93223.72;1066139;55;20270;-86
2020/12/22 00:48:33;;;;;;;;;;;;;;;7.49;100.00;93238.53;1068226;55;20157;-87
2020/12/22 00:49:34;;;;;;;;;;;;;;;7.43;100.00;93229.47;1068282;55;21014;-86
2020/12/22 00:50:34;;;;;;;;;;;;;;;7.47;100.00;93224.13;1068058;55;20203;-86
2020/12/22 00:51:35;;;;;;;;;;;;;;;7.43;100.00;93218.84;1068223;55;20157;-86
2020/12/22 00:52:35;;;;;;;;;;;;;;;7.53;100.00;93222.56;1066135;55;20671;-86
2020/12/22 00:53:36;;;;;;;;;;;;;;;7.48;100.00;93222.97;1065894;55;20185;-87
2020/12/22 00:54:36;;;;;;;;;;;;;;;7.48;100.00;93221.06;1068339;55;20168;-85
2020/12/22 00:55:37;;;;;;;;;;;;;;;7.48;100.00;93217.66;1068053;55;20160;-87
2020/12/22 00:56:37;;;;;;;;;;;;;;;7.61;100.00;93228.56;1070355;55;20261;-85
2020/12/22 00:57:38;;;;;;;;;;;;;;;7.56;100.00;93227.09;1070163;55;20144;-87
2020/12/22 00:58:38;;;;;;;;;;;;;;;7.58;100.00;93220.22;1070357;55;20195;-87
2020/12/22 00:59:39;;;;;;;;;;;;;;;7.56;100.00;93219.88;1068030;55;20165;-86
2020/12/22 01:00:39;;;;;;;;;;;;;;;7.57;100.00;93220.62;1068140;55;20727;-87
2020/12/22 01:01:40;;;;;;;;;;;;;;;7.53;100.00;93228.62;1072833;55;20659;-86
2020/12/22 01:02:41;;;;;;;;;;;;;;;7.60;100.00;93229.72;1065812;55;20150;-86
2020/12/22 01:03:42;;;;;;;;;;;;;;;7.64;100.00;93217.91;1063841;55;20184;-88
2020/12/22 01:04:44;;;;;;;;;;;;;;;7.63;100.00;93213.72;1066037;55;20185;-86
2020/12/22 01:05:46;;;;;;;;;;;;;;;7.59;100.00;93218.31;1067967;55;20183;-87
2020/12/22 01:06:46;;;;;;;;;;;;;;;7.56;100.00;93221.78;1063725;55;20154;-85
2020/12/22 01:07:48;;;;;;;;;;;;;;;7.59;100.00;93226.28;1065890;55;20165;-87
2020/12/22 01:08:49;;;;;;;;;;;;;;;7.63;100.00;93227.00;1068139;55;20188;-86
2020/12/22 01:09:49;;;;;;;;;;;;;;;7.64;100.00;93227.75;1068120;55;20706;-86
2020/12/22 01:10:50;;;;;;;;;;;;;;;7.67;100.00;93222.41;1068073;55;20231;-86
2020/12/22 01:11:51;;;;;;;;;;;;;;;7.67;100.00;93227.00;1065924;55;20654;-87
2020/12/22 01:12:53;;;;;;;;;;;;;;;7.56;100.00;93229.75;1065658;55;20193;-87
2020/12/22 01:13:54;;;;;;;;;;;;;;;7.58;100.00;93225.53;1065936;55;20157;-89
2020/12/22 01:14:54;;;;;;;;;;;;;;;7.56;100.00;93241.16;1068224;55;20153;-86
2020/12/22 01:15:55;;;;;;;;;;;;;;;7.55;100.00;93231.66;1068153;55;20161;-86
2020/12/22 01:16:55;;;;;;;;;;;;;;;7.57;100.00;93233.91;1068035;55;20550;-86
2020/12/22 01:17:56;;;;;;;;;;;;;;;7.54;100.00;93232.78;1065901;55;20149;-87
2020/12/22 01:18:56;;;;;;;;;;;;;;;7.56;100.00;93235.81;1063862;55;20153;-85
2020/12/22 01:20:00;;;;;;;;;;;;;;;7.52;100.00;93245.75;1063646;55;20244;-85
2020/12/22 01:21:00;;;;;;;;;;;;;;;7.58;100.00;93228.19;1068080;55;20168;-86
2020/12/22 01:22:01;;;;;;;;;;;;;;;7.64;100.00;93238.41;1070140;55;20149;-86
2020/12/22 01:23:02;;;;;;;;;;;;;;;7.64;100.00;93251.72;1065704;55;20153;-86
2020/12/22 01:24:04;;;;;;;;;;;;;;;7.66;100.00;93225.47;1068043;55;20192;-85
2020/12/22 01:25:04;;;;;;;;;;;;;;;7.69;100.00;93230.78;1070112;55;20196;-88
2020/12/22 01:26:05;;;;;;;;;;;;;;;7.70;100.00;93228.88;1068098;55;20189;-86
2020/12/22 01:27:06;;;;;;;;;;;;;;;7.69;100.00;93235.34;1063771;55;20193;-86
2020/12/22 01:28:06;;;;;;;;;;;;;;;7.64;100.00;93233.88;1063901;55;20551;-86
2020/12/22 01:29:07;;;;;;;;;;;;;;;7.64;100.00;93223.22;1065856;55;20189;-87
2020/12/22 01:30:09;;;;;;;;;;;;;;;7.66;100.00;93223.56;1065866;55;20189;-87
2020/12/22 01:31:11;;;;;;;;;;;;;;;7.65;100.00;93221.31;1065781;55;20589;-86
2020/12/22 01:32:13;;;;;;;;;;;;;;;7.71;100.00;93231.13;1065983;55;20266;-86
2020/12/22 01:33:14;;;;;;;;;;;;;;;7.67;100.00;93230.41;1066017;55;20255;-85
2020/12/22 01:34:15;;;;;;;;;;;;;;;7.74;100.00;93224.28;1063700;55;20169;-86
2020/12/22 01:35:18;;;;;;;;;;;;;;;7.74;100.00;93225.03;1063726;55;20181;-86
2020/12/22 01:36:19;;;;;;;;;;;;;;;7.75;100.00;93220.47;1063980;55;20630;-87
2020/12/22 01:37:20;;;;;;;;;;;;;;;7.75;100.00;93239.84;1065790;55;20640;-85
2020/12/22 01:38:21;;;;;;;;;;;;;;;7.75;100.00;93233.75;1061600;56;20186;-87
2020/12/22 01:39:21;;;;;;;;;;;;;;;7.69;100.00;93235.34;1063676;55;20596;-88
2020/12/22 01:40:22;;;;;;;;;;;;;;;7.66;100.00;93228.91;1065707;55;20173;-85
2020/12/22 01:41:22;;;;;;;;;;;;;;;7.74;100.00;93242.91;1065824;55;20275;-87
2020/12/22 01:42:23;;;;;;;;;;;;;;;7.79;100.00;93234.47;1068133;55;20214;-87
2020/12/22 01:43:23;;;;;;;;;;;;;;;7.69;100.00;93240.66;1068129;55;20158;-88
2020/12/22 01:44:24;;;;;;;;;;;;;;;7.66;100.00;93228.91;1068040;55;20264;-85
2020/12/22 01:45:24;;;;;;;;;;;;;;;7.69;100.00;93246.75;1063709;55;20207;-86
2020/12/22 01:46:27;;;;;;;;;;;;;;;7.65;100.00;93243.34;1063722;55;20197;-85
2020/12/22 01:47:28;;;;;;;;;;;;;;;7.64;100.00;93233.09;1063554;55;20166;-85
2020/12/22 01:48:29;;;;;;;;;;;;;;;7.72;100.00;93237.19;1061678;56;20278;-86
2020/12/22 01:49:29;;;;;;;;;;;;;;;7.71;100.00;93235.69;1063599;55;20177;-87
2020/12/22 01:50:30;;;;;;;;;;;;;;;7.77;100.00;93240.22;1065701;55;20149;-87
2020/12/22 01:51:31;;;;;;;;;;;;;;;7.80;100.00;93246.63;1067899;55;20254;-86
2020/12/22 01:52:32;;;;;;;;;;;;;;;7.80;100.00;93236.75;1067888;55;20165;-86
2020/12/22 01:53:32;;;;;;;;;;;;;;;7.91;100.00;93234.00;1067940;55;20265;-85
2020/12/22 01:54:33;;;;;;;;;;;;;;;7.82;100.00;93231.03;1065910;55;20743;-88
2020/12/22 01:55:34;;;;;;;;;;;;;;;7.92;100.00;93232.09;1065977;55;20184;-86
2020/12/22 01:56:35;;;;;;;;;;;;;;;7.86;100.00;93245.06;1067995;55;20165;-84
2020/12/22 01:57:37;;;;;;;;;;;;;;;7.92;100.00;93235.50;1068571;55;20165;-86
2020/12/22 01:58:37;;;;;;;;;;;;;;;7.91;100.00;93236.66;1068084;55;20176;-84
2020/12/22 01:59:38;;;;;;;;;;;;;;;7.89;100.00;93233.63;1065764;55;20246;-87
2020/12/22 02:00:38;;;;;;;;;;;;;;;7.88;100.00;93250.75;1065866;55;20181;-85
2020/12/22 02:01:39;;;;;;;;;;;;;;;7.95;100.00;93239.28;1065808;55;20149;-87
2020/12/22 02:02:42;;;;;;;;;;;;;;;8.00;99.70;93228.97;1063697;55;20151;-86
2020/12/22 02:03:44;;;;;;;;;;;;;;;7.84;100.00;93226.06;1064011;55;20700;-88
2020/12/22 02:04:45;;;;;;;;;;;;;;;7.83;100.00;93225.31;1063816;55;20256;-86
2020/12/22 02:05:45;;;;;;;;;;;;;;;7.92;100.00;93221.44;1064215;55;20227;-87
2020/12/22 02:06:46;;;;;;;;;;;;;;;7.94;100.00;93219.13;1066109;55;20184;-87
2020/12/22 02:07:47;;;;;;;;;;;;;;;7.93;100.00;93218.37;1061602;56;20155;-86
2020/12/22 02:08:49;;;;;;;;;;;;;;;7.90;100.00;93215.75;1061692;55;20158;-84
2020/12/22 02:09:49;;;;;;;;;;;;;;;7.94;100.00;93208.47;1061665;56;20166;-86
2020/12/22 02:10:50;;;;;;;;;;;;;;;7.94;100.00;93211.88;1063771;55;20158;-86
2020/12/22 02:11:52;;;;;;;;;;;;;;;7.89;100.00;93215.00;1061821;56;20191;-85
2020/12/22 02:12:53;;;;;;;;;;;;;;;7.77;100.00;93199.50;1061637;55;20197;-86
2020/12/22 02:13:54;;;;;;;;;;;;;;;7.74;100.00;93200.31;1063773;55;20259;-86
2020/12/22 02:14:54;;;;;;;;;;;;;;;7.67;100.00;93200.38;1063706;55;20642;-85
2020/12/22 02:15:55;;;;;;;;;;;;;;;7.68;100.00;93204.56;1068057;55;20257;-86
2020/12/22 02:16:56;;;;;;;;;;;;;;;7.74;100.00;93205.66;1067909;55;20164;-86
2020/12/22 02:17:59;;;;;;;;;;;;;;;7.79;100.00;93213.94;1063831;55;20157;-88
2020/12/22 02:18:59;;;;;;;;;;;;;;;7.79;100.00;93215.84;1065918;55;20173;-86
2020/12/22 02:20:00;;;;;;;;;;;;;;;7.75;100.00;93217.78;1068112;55;20197;-86
2020/12/22 02:21:02;;;;;;;;;;;;;;;7.73;100.00;93209.47;1065755;55;20187;-87
2020/12/22 02:22:04;;;;;;;;;;;;;;;7.73;100.00;93214.78;1063660;55;20650;-87
2020/12/22 02:23:04;;;;;;;;;;;;;;;7.69;100.00;93222.78;1065919;55;20251;-85
2020/12/22 02:24:05;;;;;;;;;;;;;;;7.76;100.00;93211.31;1068038;55;20204;-86
2020/12/22 02:25:13;;;;;;;;;;;;;;;7.81;100.00;93216.19;1070169;55;20563;-86
2020/12/22 02:26:24;;;;;;;;;;;;;;;7.79;100.00;93207.88;1068146;55;20192;-87
2020/12/22 02:27:24;;;;;;;;;;;;;;;7.80;100.00;93204.06;1065956;55;20157;-86
2020/12/22 02:28:25;;;;;;;;;;;;;;;7.81;100.00;93209.00;1065818;55;20268;-86
2020/12/22 02:29:27;;;;;;;;;;;;;;;7.82;100.00;93201.78;1065779;55;20630;-85
2020/12/22 02:30:28;;;;;;;;;;;;;;;7.79;100.00;93203.31;1063621;55;20344;-86
2020/12/22 02:31:28;;;;;;;;;;;;;;;7.73;100.00;93204.16;1065669;55;20180;-86
2020/12/22 02:32:29;;;;;;;;;;;;;;;7.74;100.00;93189.69;1067915;55;20189;-88
2020/12/22 02:33:31;;;;;;;;;;;;;;;7.75;100.00;93193.84;1068151;55;20168;-86
2020/12/22 02:34:31;;;;;;;;;;;;;;;7.77;100.00;93202.19;1065738;55;20558;-87
2020/12/22 02:35:32;;;;;;;;;;;;;;;7.73;100.00;93196.91;1063676;55;20190;-86
2020/12/22 02:36:33;;;;;;;;;;;;;;;7.70;100.00;93203.00;1065693;55;20158;-86
2020/12/22 02:37:34;;;;;;;;;;;;;;;7.78;100.00;93198.38;1065916;55;20177;-87
2020/12/22 02:38:35;;;;;;;;;;;;;;;7.75;100.00;93193.84;1065808;55;20149;-87
2020/12/22 02:39:36;;;;;;;;;;;;;;;7.88;100.00;93216.16;1067997;55;20605;-87
2020/12/22 02:40:38;;;;;;;;;;;;;;;7.83;100.00;93198.72;1067958;55;20164;-87
2020/12/22 02:41:39;;;;;;;;;;;;;;;7.89;100.00;93208.91;1063622;55;20643;-87
2020/12/22 02:42:39;;;;;;;;;;;;;;;7.86;100.00;93212.34;1063653;55;20162;-86
2020/12/22 02:43:40;;;;;;;;;;;;;;;7.87;100.00;93217.31;1065596;55;20168;-89
2020/12/22 02:44:40;;;;;;;;;;;;;;;7.91;100.00;93223.34;1065848;55;20180;-86
2020/12/22 02:45:42;;;;;;;;;;;;;;;8.07;98.67;93236.09;1065737;55;20617;-86
2020/12/22 02:46:42;;;;;;;;;;;;;;;8.09;98.13;93225.81;1065769;55;20178;-86
2020/12/22 02:47:43;;;;;;;;;;;;;;;8.10;98.55;93231.91;1061605;56;20656;-87
2020/12/22 02:48:43;;;;;;;;;;;;;;;8.01;99.83;93227.03;1063696;55;20149;-84
2020/12/22 02:49:44;;;;;;;;;;;;;;;7.97;100.00;93231.66;1068037;55;20176;-84
2020/12/22 02:50:44;;;;;;;;;;;;;;;8.00;99.58;93228.22;1065944;55;20246;-84
2020/12/22 02:51:45;;;;;;;;;;;;;;;7.94;100.00;93241.16;1061585;56;20978;-88
2020/12/22 02:52:45;;;;;;;;;;;;;;;7.96;100.00;93235.47;1065882;55;20731;-86
2020/12/22 02:53:46;;;;;;;;;;;;;;;7.97;100.00;93232.41;1070037;55;20188;-84
2020/12/22 02:54:46;;;;;;;;;;;;;;;7.96;100.00;93241.53;1067837;55;20294;-86
2020/12/22 02:55:47;;;;;;;;;;;;;;;8.02;99.41;93223.22;1067829;55;20176;-86
2020/12/22 02:56:47;;;;;;;;;;;;;;;8.11;98.24;93230.75;1068139;55;20204;-86
2020/12/22 02:57:48;;;;;;;;;;;;;;;8.12;98.11;93225.03;1065831;55;20188;-85
2020/12/22 02:58:51;;;;;;;;;;;;;;;8.03;98.87;93225.50;1065672;55;20169;-87
2020/12/22 02:59:51;;;;;;;;;;;;;;;8.07;98.55;93228.88;1068055;55;20238;-86
2020/12/22 03:00:52;;;;;;;;;;;;;;;8.05;99.59;93215.22;1065699;55;20736;-86
2020/12/22 03:01:53;;;;;;;;;;;;;;;8.08;98.60;93225.06;1063589;55;20200;-86
2020/12/22 03:02:53;;;;;;;;;;;;;;;8.11;97.74;93234.16;1065944;55;20201;-85
2020/12/22 03:03:54;;;;;;;;;;;;;;;8.17;97.53;93221.19;1068021;55;20660;-86
2020/12/22 03:04:54;;;;;;;;;;;;;;;8.17;98.29;93226.50;1068014;55;20168;-84
2020/12/22 03:05:55;;;;;;;;;;;;;;;8.20;97.27;93229.12;1065602;55;20251;-87
2020/12/22 03:06:55;;;;;;;;;;;;;;;8.13;98.40;93226.53;1063723;55;20185;-87
2020/12/22 03:07:56;;;;;;;;;;;;;;;8.07;99.04;93247.50;1067839;55;20161;-86
2020/12/22 03:08:57;;;;;;;;;;;;;;;8.12;98.73;93235.69;1065538;55;20181;-86
2020/12/22 03:09:57;;;;;;;;;;;;;;;8.13;98.01;93223.88;1063747;55;20251;-86
2020/12/22 03:10:58;;;;;;;;;;;;;;;8.15;98.34;93232.22;1067986;55;20161;-84
2020/12/22 03:11:59;;;;;;;;;;;;;;;8.12;98.57;93225.03;1065814;55;20254;-86
2020/12/22 03:13:00;;;;;;;;;;;;;;;8.12;98.89;93213.62;1066026;55;20158;-86
2020/12/22 03:14:01;;;;;;;;;;;;;;;8.04;99.88;93218.28;1071280;55;20244;-85
2020/12/22 03:15:03;;;;;;;;;;;;;;;8.07;98.88;93206.81;1067992;55;20169;-86
2020/12/22 03:16:04;;;;;;;;;;;;;;;8.00;99.92;93205.00;1065921;55;20176;-87
2020/12/22 03:17:04;;;;;;;;;;;;;;;7.98;100.00;93212.63;1068002;55;20672;-86
2020/12/22 03:18:06;;;;;;;;;;;;;;;7.96;100.00;93211.50;1070233;55;20674;-84
2020/12/22 03:19:06;;;;;;;;;;;;;;;7.92;100.00;93205.47;1068121;55;20180;-84
2020/12/22 03:20:08;;;;;;;;;;;;;;;7.96;100.00;93206.19;1065923;55;20582;-82
2020/12/22 03:21:09;;;;;;;;;;;;;;;7.98;99.89;93215.28;1065906;55;20200;-84
2020/12/22 03:22:11;;;;;;;;;;;;;;;8.08;99.25;93208.34;1065719;55;20157;-84
2020/12/22 03:23:13;;;;;;;;;;;;;;;8.19;96.70;93195.66;1066030;55;20217;-85
2020/12/22 03:24:15;;;;;;;;;;;;;;;8.21;97.29;93213.88;1066175;55;20664;-83
2020/12/22 03:25:17;;;;;;;;;;;;;;;8.23;97.54;93211.59;1065740;55;20158;-83
2020/12/22 03:26:18;;;;;;;;;;;;;;;8.12;99.05;93221.59;1065837;55;20154;-87
2020/12/22 03:27:19;;;;;;;;;;;;;;;8.07;98.89;93207.56;1068013;55;20161;-85
2020/12/22 03:28:19;;;;;;;;;;;;;;;8.01;100.00;93205.75;1070431;55;20993;-85
2020/12/22 03:29:23;;;;;;;;;;;;;;;7.96;100.00;93209.59;1065842;55;20642;-84
2020/12/22 03:30:26;;;;;;;;;;;;;;;7.96;100.00;93211.50;1063829;55;20193;-85
2020/12/22 03:31:26;;;;;;;;;;;;;;;7.94;100.00;93209.22;1065718;55;20193;-86
2020/12/22 03:32:28;;;;;;;;;;;;;;;8.05;98.70;93209.13;1068047;55;20184;-86
2020/12/22 03:33:30;;;;;;;;;;;;;;;8.15;97.73;93215.50;1067859;55;20635;-85
2020/12/22 03:34:31;;;;;;;;;;;;;;;8.09;97.76;93225.81;1063715;55;20181;-85
2020/12/22 03:35:33;;;;;;;;;;;;;;;8.09;98.66;93228.50;1061671;55;20204;-86
2020/12/22 03:36:33;;;;;;;;;;;;;;;8.08;98.66;93214.44;1061441;56;20234;-87
2020/12/22 03:37:36;;;;;;;;;;;;;;;8.11;98.18;93218.19;1063830;55;20194;-85
2020/12/22 03:38:36;;;;;;;;;;;;;;;8.12;98.82;93221.59;1063664;55;20188;-86
2020/12/22 03:39:37;;;;;;;;;;;;;;;8.12;97.98;93211.72;1065871;55;20184;-87
2020/12/22 03:40:37;;;;;;;;;;;;;;;8.11;98.27;93220.09;1065839;55;20153;-87
2020/12/22 03:41:40;;;;;;;;;;;;;;;8.07;99.48;93230.78;1063712;55;20166;-87
2020/12/22 03:42:40;;;;;;;;;;;;;;;8.15;98.39;93223.47;1065720;55;20158;-88
2020/12/22 03:43:42;;;;;;;;;;;;;;;8.16;98.70;93222.31;1065668;55;21159;-88
2020/12/22 03:44:43;;;;;;;;;;;;;;;8.05;99.81;93220.53;1063555;56;20152;-87
2020/12/22 03:45:45;;;;;;;;;;;;;;;8.08;99.58;93234.97;1063689;55;20673;-85
2020/12/22 03:46:49;;;;;;;;;;;;;;;8.07;99.22;93217.47;1067958;55;20665;-86
2020/12/22 03:47:53;;;;;;;;;;;;;;;8.05;99.89;93228.53;1070209;55;20244;-87
2020/12/22 03:48:53;;;;;;;;;;;;;;;8.06;99.38;93231.94;1070291;55;20180;-86
2020/12/22 03:49:54;;;;;;;;;;;;;;;8.12;98.47;93225.03;1067940;55;20172;-85
2020/12/22 03:50:54;;;;;;;;;;;;;;;8.07;99.30;93231.53;1065758;55;20169;-84
2020/12/22 03:51:58;;;;;;;;;;;;;;;8.03;100.00;93233.50;1063732;55;20162;-86
2020/12/22 03:53:00;;;;;;;;;;;;;;;8.11;99.51;93228.84;1063748;55;20619;-86
2020/12/22 03:54:02;;;;;;;;;;;;;;;8.11;99.00;93234.16;1063718;55;20158;-85
2020/12/22 03:55:04;;;;;;;;;;;;;;;8.15;99.08;93236.78;1065844;55;20188;-87
2020/12/22 03:56:06;;;;;;;;;;;;;;;8.15;99.11;93231.47;1063819;55;20260;-87
2020/12/22 03:57:08;;;;;;;;;;;;;;;8.08;99.40;93214.44;1063822;55;20162;-88
2020/12/22 03:58:09;;;;;;;;;;;;;;;8.05;100.00;93225.09;1065721;55;20172;-85
2020/12/22 03:59:10;;;;;;;;;;;;;;;8.11;100.00;93223.50;1063661;55;20154;-87
2020/12/22 04:00:12;;;;;;;;;;;;;;;8.04;100.00;93221.69;1063717;56;20180;-85
2020/12/22 04:01:13;;;;;;;;;;;;;;;8.08;100.00;93234.97;1063712;55;21173;-87
2020/12/22 04:02:14;;;;;;;;;;;;;;;8.08;100.00;93225.06;1063726;55;20153;-86
2020/12/22 04:03:15;;;;;;;;;;;;;;;8.13;99.73;93225.78;1067998;55;20161;-85
2020/12/22 04:04:18;;;;;;;;;;;;;;;8.13;99.60;93231.13;1067843;55;20648;-86
2020/12/22 04:05:19;;;;;;;;;;;;;;;8.08;99.54;93225.06;1067790;55;20665;-87
2020/12/22 04:06:20;;;;;;;;;;;;;;;8.10;99.56;93235.31;1067852;55;20155;-85
2020/12/22 04:07:20;;;;;;;;;;;;;;;8.18;99.09;93226.09;1065724;55;20239;-87
2020/12/22 04:08:21;;;;;;;;;;;;;;;8.13;99.33;93229.22;1068038;55;20193;-86
2020/12/22 04:09:22;;;;;;;;;;;;;;;8.13;99.55;93228.47;1067912;55;20158;-85
2020/12/22 04:10:22;;;;;;;;;;;;;;;8.07;100.00;93236.84;1067825;55;20649;-84
2020/12/22 04:11:23;;;;;;;;;;;;;;;8.08;100.00;93243.72;1065765;55;20166;-85
2020/12/22 04:12:23;;;;;;;;;;;;;;;8.09;100.00;93239.13;1067989;55;20154;-87
2020/12/22 04:13:24;;;;;;;;;;;;;;;8.21;98.60;93229.88;1067837;55;20773;-85
2020/12/22 04:14:24;;;;;;;;;;;;;;;8.16;99.47;93236.38;1065870;55;20224;-87
2020/12/22 04:15:25;;;;;;;;;;;;;;;8.22;99.40;93237.47;1065783;55;20150;-87
2020/12/22 04:16:27;;;;;;;;;;;;;;;8.14;99.78;93228.06;1065711;55;20166;-86
2020/12/22 04:17:28;;;;;;;;;;;;;;;8.23;98.84;93228.31;1065876;55;20196;-86
2020/12/22 04:18:28;;;;;;;;;;;;;;;8.33;97.55;93234.69;1065839;55;20177;-86
2020/12/22 04:19:29;;;;;;;;;;;;;;;8.28;98.50;93227.13;1065686;55;20188;-86
2020/12/22 04:20:30;;;;;;;;;;;;;;;8.41;96.81;93232.72;1068189;55;20161;-87
2020/12/22 04:21:30;;;;;;;;;;;;;;;8.36;97.06;93228.56;1068164;55;20737;-87
2020/12/22 04:22:31;;;;;;;;;;;;;;;8.35;97.91;93236.97;1068214;55;20180;-86
2020/12/22 04:23:31;;;;;;;;;;;;;;;8.26;98.48;93237.44;1063779;55;20668;-88
2020/12/22 04:24:32;;;;;;;;;;;;;;;8.28;98.90;93237.78;1064046;55;20189;-85
2020/12/22 04:25:33;;;;;;;;;;;;;;;8.36;97.16;93233.13;1065957;55;20287;-85
2020/12/22 04:26:34;;;;;;;;;;;;;;;8.30;97.92;93235.50;1066054;55;20168;-86
2020/12/22 04:27:35;;;;;;;;;;;;;;;8.24;98.67;93245.06;1065921;55;20165;-85
2020/12/22 04:28:36;;;;;;;;;;;;;;;8.24;99.53;93229.06;1068213;55;20257;-87
2020/12/22 04:29:39;;;;;;;;;;;;;;;8.17;99.72;93232.59;1068231;55;20254;-86
2020/12/22 04:30:39;;;;;;;;;;;;;;;8.17;99.97;93237.16;1065998;55;20181;-87
2020/12/22 04:31:40;;;;;;;;;;;;;;;8.11;100.00;93226.16;1063727;55;20154;-85
2020/12/22 04:32:41;;;;;;;;;;;;;;;8.20;99.20;93226.44;1065833;55;20293;-86
2020/12/22 04:33:41;;;;;;;;;;;;;;;8.19;99.48;93226.84;1068210;55;20153;-85
2020/12/22 04:34:42;;;;;;;;;;;;;;;8.23;99.73;93227.56;1066070;55;20206;-84
2020/12/22 04:35:42;;;;;;;;;;;;;;;8.28;99.40;93235.88;1061715;56;20174;-87
2020/12/22 04:36:43;;;;;;;;;;;;;;;8.36;97.55;93231.22;1066121;55;20213;-86
2020/12/22 04:37:43;;;;;;;;;;;;;;;8.26;98.10;93229.44;1065993;55;20154;-86
2020/12/22 04:38:44;;;;;;;;;;;;;;;8.20;99.64;93231.78;1065980;55;20185;-86
2020/12/22 04:39:44;;;;;;;;;;;;;;;8.18;99.42;93233.34;1065945;55;21110;-86
2020/12/22 04:40:45;;;;;;;;;;;;;;;8.21;98.57;93235.19;1068163;55;20149;-85
2020/12/22 04:41:47;;;;;;;;;;;;;;;8.25;98.48;93241.22;1066083;55;20621;-86
2020/12/22 04:42:53;;;;;;;;;;;;;;;8.24;98.12;93235.16;1064192;55;20193;-86
2020/12/22 04:43:54;;;;;;;;;;;;;;;8.24;98.55;93223.75;1064041;55;20700;-87
2020/12/22 04:44:54;;;;;;;;;;;;;;;8.29;97.92;93229.38;1064011;55;20213;-85
2020/12/22 04:46:00;;;;;;;;;;;;;;;8.25;98.36;93231.38;1068272;55;20204;-87
2020/12/22 04:47:04;;;;;;;;;;;;;;;8.36;97.12;93227.81;1066034;55;20637;-86
2020/12/22 04:48:04;;;;;;;;;;;;;;;8.33;97.68;93218.69;1064021;55;20165;-86
2020/12/22 04:49:05;;;;;;;;;;;;;;;8.40;96.56;93217.91;1063962;55;20564;-86
2020/12/22 04:50:06;;;;;;;;;;;;;;;8.42;96.62;93223.56;1063959;55;20252;-85
2020/12/22 04:51:10;;;;;;;;;;;;;;;8.39;97.78;93227.06;1063811;55;21101;-88
2020/12/22 04:52:12;;;;;;;;;;;;;;;8.43;97.23;93228.53;1066175;55;20266;-87
2020/12/22 04:53:13;;;;;;;;;;;;;;;8.44;97.07;93216.72;1066057;55;20763;-85
2020/12/22 04:54:15;;;;;;;;;;;;;;;8.31;98.12;93219.13;1066089;55;20243;-86
2020/12/22 04:55:17;;;;;;;;;;;;;;;8.35;97.85;93221.00;1063819;55;20662;-86
2020/12/22 04:56:20;;;;;;;;;;;;;;;8.32;98.49;93206.53;1061948;55;20241;-86
2020/12/22 04:57:26;;;;;;;;;;;;;;;8.29;98.54;93221.41;1064052;55;20668;-87
2020/12/22 04:58:27;;;;;;;;;;;;;;;8.27;99.16;93220.31;1068265;55;20180;-87
2020/12/22 04:59:29;;;;;;;;;;;;;;;8.24;99.65;93226.41;1066017;55;20158;-85
2020/12/22 05:00:29;;;;;;;;;;;;;;;8.22;99.15;93226.81;1068127;55;20157;-87
2020/12/22 05:01:30;;;;;;;;;;;;;;;8.27;99.34;93221.06;1070505;55;20168;-85
2020/12/22 05:02:34;;;;;;;;;;;;;;;8.28;98.98;93224.47;1068216;55;20598;-86
2020/12/22 05:03:35;;;;;;;;;;;;;;;8.31;98.71;93229.00;1063931;55;20181;-86
2020/12/22 05:04:37;;;;;;;;;;;;;;;8.36;98.25;93225.91;1063862;55;20185;-86
2020/12/22 05:05:37;;;;;;;;;;;;;;;8.27;98.47;93221.06;1065905;55;20173;-86
2020/12/22 05:06:39;;;;;;;;;;;;;;;8.37;97.72;93230.09;1066165;55;20188;-86
2020/12/22 05:07:40;;;;;;;;;;;;;;;8.30;98.76;93236.25;1068213;55;20156;-87
2020/12/22 05:08:40;;;;;;;;;;;;;;;8.24;98.88;93237.81;1068232;55;20180;-86
2020/12/22 05:09:41;;;;;;;;;;;;;;;8.27;99.75;93228.28;1065902;55;20189;-84
2020/12/22 05:10:42;;;;;;;;;;;;;;;8.33;98.95;93243.41;1063658;55;20185;-86
2020/12/22 05:11:42;;;;;;;;;;;;;;;8.29;99.16;93244.62;1063829;55;20149;-86
2020/12/22 05:12:44;;;;;;;;;;;;;;;8.25;99.14;93249.22;1063985;55;20259;-87
2020/12/22 05:13:48;;;;;;;;;;;;;;;8.36;98.70;93249.88;1065580;55;20141;-86
2020/12/22 05:14:48;;;;;;;;;;;;;;;8.35;98.03;93240.37;1061882;55;20247;-86
2020/12/22 05:15:50;;;;;;;;;;;;;;;8.27;98.45;93234.38;1066064;55;20193;-86
2020/12/22 05:16:53;;;;;;;;;;;;;;;8.27;99.22;93231.72;1065956;55;20161;-86
2020/12/22 05:17:58;;;;;;;;;;;;;;;8.20;99.85;93226.44;1061780;56;20174;-85
2020/12/22 05:19:00;;;;;;;;;;;;;;;8.18;100.00;93226.09;1063956;55;20189;-86
2020/12/22 05:20:01;;;;;;;;;;;;;;;8.19;100.00;93205.56;1066064;55;20185;-86